Time;durP1;ratioP1;P1;durP2;ratioP2;P2;SDS_P1;SDS_P2;PMS_P1;PMS_P2;Temp;Humidity;BMP_temperature;BMP_pressure;BME280_temperature;BME280_humidity;BME280_pressure;Samples;Min_cycle;Max_cycle;Signal;HPM_P1;HPM_P2
2021/05/14 00:01:58;;;;;;;2.58;1.35;;;;;;;15.85;35.53;100296.63;3537897;40;20058;-75
2021/05/14 00:04:26;;;;;;;2.55;1.40;;;;;;;15.83;35.82;100299.56;3529945;40;20046;-75
2021/05/14 00:06:53;;;;;;;2.67;1.85;;;;;;;15.82;35.64;100284.91;3529227;40;20086;-75
2021/05/14 00:09:22;;;;;;;1.98;1.38;;;;;;;15.83;35.46;100294.06;3537902;40;20050;-75
2021/05/14 00:11:50;;;;;;;2.53;1.77;;;;;;;15.80;35.76;100289.78;3538937;40;20110;-76
2021/05/14 00:14:19;;;;;;;2.50;1.77;;;;;;;15.81;36.16;100287.84;3531239;40;20061;-75
2021/05/14 00:16:47;;;;;;;3.10;2.08;;;;;;;15.79;36.22;100289.97;3529642;40;20055;-77
2021/05/14 00:19:16;;;;;;;3.22;1.90;;;;;;;15.77;35.99;100286.50;3534667;40;20043;-76
2021/05/14 00:21:44;;;;;;;2.95;1.90;;;;;;;15.78;35.97;100286.34;3528987;40;20055;-75
2021/05/14 00:24:12;;;;;;;2.95;1.83;;;;;;;15.76;36.04;100288.41;3530832;40;20058;-76
2021/05/14 00:26:41;;;;;;;2.50;1.75;;;;;;;15.75;36.58;100278.41;3530747;40;20074;-75
2021/05/14 00:29:09;;;;;;;3.28;1.83;;;;;;;15.72;36.46;100287.03;3529515;40;20081;-75
2021/05/14 00:31:37;;;;;;;3.25;1.73;;;;;;;15.69;36.12;100283.78;3529188;40;20055;-75
2021/05/14 00:34:05;;;;;;;3.45;2.25;;;;;;;15.68;36.17;100287.59;3534949;40;20051;-76
2021/05/14 00:36:33;;;;;;;3.03;1.92;;;;;;;15.66;36.22;100284.16;3538831;40;20118;-75
2021/05/14 00:39:01;;;;;;;3.15;1.95;;;;;;;15.65;36.24;100287.94;3538313;40;20293;-76
2021/05/14 00:41:28;;;;;;;3.05;2.00;;;;;;;15.61;36.21;100292.94;3538779;40;20061;-75
2021/05/14 00:43:57;;;;;;;3.47;2.25;;;;;;;15.61;36.26;100284.66;3534390;40;20071;-77
2021/05/14 00:46:25;;;;;;;3.40;2.03;;;;;;;15.57;36.69;100283.28;3528535;40;20061;-76
2021/05/14 00:48:53;;;;;;;3.35;2.00;;;;;;;15.54;36.54;100282.81;3532983;40;20045;-76
2021/05/14 00:51:21;;;;;;;4.43;2.00;;;;;;;15.51;36.68;100283.16;3542025;40;20116;-76
2021/05/14 00:53:49;;;;;;;3.08;2.00;;;;;;;15.49;36.61;100288.84;3537842;40;20054;-76
2021/05/14 00:56:17;;;;;;;3.05;1.95;;;;;;;15.46;36.86;100289.22;3537667;40;20554;-76
2021/05/14 00:58:45;;;;;;;3.58;2.05;;;;;;;15.43;36.80;100286.78;3536093;40;20142;-76
2021/05/14 01:01:14;;;;;;;3.70;2.22;;;;;;;15.39;36.91;100280.75;3528781;40;20079;-76
2021/05/14 01:03:52;;;;;;;3.17;1.95;;;;;;;15.34;37.03;100282.34;3538571;40;20066;-76
2021/05/14 01:06:20;;;;;;;3.83;1.90;;;;;;;15.33;36.63;100277.88;3538660;40;20113;-76
2021/05/14 01:08:47;;;;;;;2.60;1.52;;;;;;;15.30;36.70;100279.09;3538016;40;20112;-76
2021/05/14 01:11:15;;;;;;;3.28;2.10;;;;;;;15.28;36.62;100283.06;3538477;40;20062;-76
2021/05/14 01:13:43;;;;;;;3.50;2.00;;;;;;;15.25;37.17;100275.13;3527454;40;20297;-76
2021/05/14 01:16:11;;;;;;;3.25;2.03;;;;;;;15.21;36.74;100276.53;3538714;40;20067;-76
2021/05/14 01:18:40;;;;;;;3.00;2.03;;;;;;;15.20;36.75;100277.56;3532873;40;20130;-76
2021/05/14 01:21:09;;;;;;;2.80;1.77;;;;;;;15.16;37.38;100277.06;3534703;40;20083;-76
2021/05/14 01:23:37;;;;;;;3.47;1.70;;;;;;;15.11;37.33;100273.97;3528688;40;20055;-76
2021/05/14 01:26:10;;;;;;;3.47;2.00;;;;;;;15.12;37.63;100274.84;3528921;40;20095;-76
2021/05/14 01:28:38;;;;;;;2.80;1.85;;;;;;;15.03;37.18;100269.34;3529386;40;20122;-76
2021/05/14 01:31:06;;;;;;;4.00;2.00;;;;;;;15.01;37.50;100265.06;3538488;40;20058;-76
2021/05/14 01:33:35;;;;;;;3.55;1.80;;;;;;;15.00;37.58;100285.34;3538640;40;20297;-76
2021/05/14 01:36:19;;;;;;;3.53;2.03;;;;;;;14.98;37.61;100277.25;3528788;40;20058;-76
2021/05/14 01:38:47;;;;;;;3.45;2.33;;;;;;;14.92;37.44;100277.97;3536499;40;20055;-76
2021/05/14 01:41:22;;;;;;;3.03;1.83;;;;;;;14.89;37.46;100275.59;3528729;40;20361;-76
2021/05/14 01:44:10;;;;;;;5.05;2.33;;;;;;;14.86;37.21;100280.56;3544565;40;20051;-76
2021/05/14 01:46:57;;;;;;;3.20;2.00;;;;;;;14.84;37.50;100277.13;3538594;40;20062;-76
2021/05/14 01:49:45;;;;;;;3.40;2.00;;;;;;;14.81;37.35;100278.34;3534230;40;20055;-76
2021/05/14 01:52:34;;;;;;;4.00;2.08;;;;;;;14.80;37.81;100281.28;3528257;40;20075;-76
2021/05/14 01:55:20;;;;;;;3.78;1.98;;;;;;;14.77;37.67;100279.72;3533441;40;20073;-75
2021/05/14 01:58:06;;;;;;;3.72;2.10;;;;;;;14.75;37.58;100272.63;3532622;40;20054;-76
2021/05/14 02:00:54;;;;;;;4.32;2.00;;;;;;;14.70;37.67;100270.41;3531447;40;20043;-75
2021/05/14 02:03:41;;;;;;;2.72;1.83;;;;;;;14.67;37.84;100273.50;3529510;40;20065;-76
2021/05/14 02:06:29;;;;;;;3.35;1.92;;;;;;;14.65;37.80;100267.31;3539324;40;20057;-76
2021/05/14 02:09:15;;;;;;;3.95;2.20;;;;;;;14.63;37.73;100275.75;3522234;40;20428;-75
2021/05/14 02:12:03;;;;;;;4.03;2.25;;;;;;;14.59;37.87;100284.50;3525386;40;20059;-75
2021/05/14 02:14:50;;;;;;;4.47;1.88;;;;;;;14.57;37.93;100281.09;3531547;40;20071;-76
2021/05/14 02:17:37;;;;;;;3.38;1.92;;;;;;;14.53;38.04;100274.19;3525052;40;20071;-76
2021/05/14 02:20:24;;;;;;;3.35;2.17;;;;;;;14.51;37.75;100281.75;3536984;40;20051;-76
2021/05/14 02:23:12;;;;;;;4.70;2.22;;;;;;;14.48;37.88;100273.88;3529524;40;20028;-75
2021/05/14 02:26:00;;;;;;;5.43;2.40;;;;;;;14.47;37.59;100284.00;3533380;40;20091;-76
2021/05/14 02:28:48;;;;;;;3.67;2.13;;;;;;;14.42;38.05;100274.53;3528869;40;20062;-76
2021/05/14 02:31:36;;;;;;;3.95;2.03;;;;;;;14.40;38.22;100282.97;3523653;40;20050;-77
2021/05/14 02:34:23;;;;;;;3.38;2.10;;;;;;;14.36;37.89;100277.97;3529239;40;20055;-76
2021/05/14 02:37:11;;;;;;;3.65;1.90;;;;;;;14.33;38.03;100273.66;3525573;40;20306;-75
2021/05/14 02:39:59;;;;;;;3.97;2.25;;;;;;;14.31;37.97;100273.00;3521655;40;20052;-76
2021/05/14 02:42:48;;;;;;;4.13;1.90;;;;;;;14.29;37.95;100278.66;3535183;40;20321;-76
2021/05/14 02:45:35;;;;;;;4.53;2.13;;;;;;;14.24;38.04;100269.22;3532280;40;20058;-78
2021/05/14 02:48:23;;;;;;;3.58;1.92;;;;;;;14.22;37.82;100274.88;3529697;40;20401;-76
2021/05/14 02:51:10;;;;;;;3.67;1.85;;;;;;;14.20;37.89;100287.94;3534335;40;20051;-75
2021/05/14 02:53:59;;;;;;;3.60;1.90;;;;;;;14.17;38.09;100281.91;3539527;40;20050;-76
2021/05/14 02:56:46;;;;;;;3.05;1.95;;;;;;;14.14;38.09;100279.50;3539523;40;20073;-76
2021/05/14 02:59:35;;;;;;;3.00;2.00;;;;;;;14.13;38.29;100280.53;3533869;40;20087;-75
2021/05/14 03:02:25;;;;;;;3.45;2.03;;;;;;;14.09;37.94;100280.00;3529489;40;20059;-76
2021/05/14 03:05:13;;;;;;;4.38;2.03;;;;;;;14.07;38.13;100279.34;3529233;40;20095;-76
2021/05/14 03:08:00;;;;;;;3.63;1.70;;;;;;;14.05;38.20;100277.78;3538779;40;20062;-75
2021/05/14 03:10:48;;;;;;;4.90;2.25;;;;;;;14.03;38.15;100279.81;3539519;40;20141;-75
2021/05/14 03:13:35;;;;;;;3.83;2.20;;;;;;;13.99;38.05;100281.22;3539404;40;20059;-76
2021/05/14 03:16:24;;;;;;;3.33;2.10;;;;;;;13.98;38.41;100272.09;3534235;40;20063;-75
2021/05/14 03:19:12;;;;;;;3.33;1.88;;;;;;;13.95;38.05;100277.91;3529861;40;20381;-75
2021/05/14 03:21:59;;;;;;;3.28;2.20;;;;;;;13.93;38.20;100277.22;3529427;40;20058;-75
2021/05/14 03:24:48;;;;;;;3.10;1.95;;;;;;;13.90;38.56;100275.69;3529676;40;20055;-76
2021/05/14 03:27:36;;;;;;;4.28;2.30;;;;;;;13.87;38.17;100278.75;3538121;40;20416;-76
2021/05/14 03:30:23;;;;;;;4.10;1.92;;;;;;;13.85;38.33;100277.16;3539026;40;20423;-76
2021/05/14 03:33:16;;;;;;;4.70;2.40;;;;;;;13.84;38.33;100272.69;3525881;40;20063;-75
2021/05/14 03:36:05;;;;;;;2.83;2.00;;;;;;;13.80;38.32;100277.69;3523020;40;20379;-76
2021/05/14 03:38:53;;;;;;;3.83;2.08;;;;;;;13.78;38.25;100284.38;3539296;40;20456;-75
2021/05/14 03:41:48;;;;;;;3.75;2.05;;;;;;;13.77;38.53;100279.91;3534581;40;20070;-76
2021/05/14 03:44:16;;;;;;;3.60;2.30;;;;;;;13.75;38.47;100276.44;3529410;40;20038;-76
2021/05/14 03:46:44;;;;;;;2.78;1.77;;;;;;;13.73;38.49;100278.53;3532956;40;20324;-75
2021/05/14 03:49:35;;;;;;;3.15;1.88;;;;;;;13.73;38.50;100273.03;3531758;40;20400;-75
2021/05/14 03:52:23;;;;;;;3.33;2.30;;;;;;;13.67;38.72;100274.53;3518967;40;20055;-76
2021/05/14 03:54:51;;;;;;;3.30;2.30;;;;;;;13.68;38.67;100273.50;3520910;40;20385;-76
2021/05/14 03:57:18;;;;;;;3.85;2.05;;;;;;;13.66;38.90;100275.59;3520743;40;20039;-76
2021/05/14 03:59:46;;;;;;;4.35;2.08;;;;;;;13.65;38.57;100271.13;3520822;40;20040;-76
2021/05/14 04:02:14;;;;;;;3.28;2.10;;;;;;;13.65;38.91;100273.88;3519554;40;20595;-76
2021/05/14 04:04:43;;;;;;;2.60;1.88;;;;;;;13.65;38.66;100273.88;3521130;40;20059;-76
2021/05/14 04:07:12;;;;;;;3.40;1.83;;;;;;;13.63;38.67;100270.41;3521351;40;20086;-75
2021/05/14 04:09:49;;;;;;;3.33;2.10;;;;;;;13.62;38.59;100268.69;3521048;40;20094;-76
2021/05/14 04:15:00;;;;;;;;;;;;;;;13.35;39.05;100268.91;3522483;40;20171;-75
2021/05/14 04:17:30;;;;;;;3.50;1.90;;;;;;;13.59;38.66;100270.91;3520391;40;20555;-76
2021/05/14 04:19:59;;;;;;;4.05;2.20;;;;;;;13.61;38.60;100271.59;3518899;40;20058;-75
2021/05/14 04:22:28;;;;;;;3.88;2.47;;;;;;;13.60;38.63;100275.38;3520324;40;20447;-76
2021/05/14 04:24:55;;;;;;;4.40;2.22;;;;;;;13.57;38.88;100271.09;3520500;40;20162;-75
2021/05/14 04:27:24;;;;;;;3.85;2.40;;;;;;;13.54;38.96;100280.50;3519511;40;20141;-75
2021/05/14 04:29:51;;;;;;;4.00;2.33;;;;;;;13.53;39.24;100286.16;3502968;40;20059;-76
2021/05/14 04:32:19;;;;;;;4.50;2.42;;;;;;;13.52;39.29;100278.94;3520250;40;20442;-76
2021/05/14 04:34:48;;;;;;;4.97;2.50;;;;;;;13.52;39.05;100289.94;3520409;40;20408;-76
2021/05/14 04:37:17;;;;;;;3.58;2.33;;;;;;;13.51;39.41;100283.59;3519869;40;20050;-76
2021/05/14 04:39:44;;;;;;;4.70;2.10;;;;;;;13.49;39.45;100285.66;3520957;40;20059;-75
2021/05/14 04:42:12;;;;;;;4.13;2.28;;;;;;;13.49;39.57;100284.78;3527804;40;20071;-75
2021/05/14 04:44:40;;;;;;;3.95;2.40;;;;;;;13.49;39.63;100284.78;3520660;40;20059;-75
2021/05/14 04:47:08;;;;;;;4.78;2.38;;;;;;;13.49;39.57;100291.16;3521520;40;20058;-76
2021/05/14 04:49:36;;;;;;;4.68;2.83;;;;;;;13.49;39.59;100296.66;3521262;40;20055;-75
2021/05/14 04:52:17;;;;;;;3.35;2.00;;;;;;;13.53;39.94;100294.41;3521320;40;20650;-76
2021/05/14 04:54:46;;;;;;;4.25;2.35;;;;;;;13.50;40.01;100303.84;3521205;40;20158;-75
2021/05/14 04:57:14;;;;;;;5.00;2.10;;;;;;;13.51;39.64;100293.72;3521465;40;20055;-75
2021/05/14 04:59:42;;;;;;;4.13;2.20;;;;;;;13.52;39.70;100296.31;3520294;40;20051;-75
2021/05/14 05:02:11;;;;;;;3.35;2.30;;;;;;;13.54;39.76;100296.13;3521305;40;20543;-75
2021/05/14 05:04:40;;;;;;;3.70;2.28;;;;;;;13.58;39.96;100296.69;3521370;40;20093;-75
2021/05/14 05:07:08;;;;;;;4.28;2.50;;;;;;;13.59;39.91;100306.63;3521356;40;20055;-76
2021/05/14 05:09:36;;;;;;;3.90;2.10;;;;;;;13.61;40.17;100299.06;3520963;40;20662;-75
2021/05/14 05:12:06;;;;;;;4.10;2.13;;;;;;;13.65;40.03;100295.00;3520262;40;20047;-75
2021/05/14 05:14:33;;;;;;;5.25;2.20;;;;;;;13.66;40.30;100304.97;3519451;40;20063;-75
2021/05/14 05:17:01;;;;;;;4.22;2.40;;;;;;;13.68;40.08;100301.00;3520999;40;20074;-75
2021/05/14 05:19:29;;;;;;;3.95;1.95;;;;;;;13.73;40.45;100300.50;3520013;40;20339;-75
2021/05/14 05:21:57;;;;;;;3.50;2.10;;;;;;;13.78;40.15;100298.13;3520388;40;20039;-75
2021/05/14 05:24:25;;;;;;;3.53;2.17;;;;;;;13.82;40.19;100300.38;3526825;40;20103;-75
2021/05/14 05:26:53;;;;;;;3.85;2.42;;;;;;;13.88;40.53;100304.38;3519953;40;20059;-75
2021/05/14 05:29:22;;;;;;;3.75;2.22;;;;;;;13.95;40.17;100305.41;3518632;40;20113;-75
2021/05/14 05:31:50;;;;;;;4.22;2.22;;;;;;;13.99;39.93;100306.81;3521765;40;20091;-75
2021/05/14 05:34:18;;;;;;;3.90;2.13;;;;;;;14.04;40.03;100301.66;3528962;40;20063;-75
2021/05/14 05:36:46;;;;;;;3.75;2.05;;;;;;;14.10;40.12;100300.13;3521970;40;20066;-75
2021/05/14 05:39:14;;;;;;;3.55;2.22;;;;;;;14.16;39.79;100316.81;3521687;40;20055;-75
2021/05/14 05:41:41;;;;;;;3.90;2.38;;;;;;;14.22;39.67;100310.66;3520998;40;20062;-75
2021/05/14 05:44:09;;;;;;;5.97;2.28;;;;;;;14.29;39.30;100311.69;3520122;40;20055;-75
2021/05/14 05:46:38;;;;;;;4.75;2.25;;;;;;;14.37;39.48;100321.84;3528121;40;20158;-76
2021/05/14 05:49:06;;;;;;;3.53;2.20;;;;;;;14.42;39.50;100310.31;3521280;40;20055;-75
2021/05/14 05:51:34;;;;;;;4.03;1.92;;;;;;;14.48;38.85;100317.91;3520420;40;20058;-75
2021/05/14 05:54:03;;;;;;;3.75;2.30;;;;;;;14.54;39.26;100323.56;3521810;40;20062;-75
2021/05/14 05:56:30;;;;;;;4.03;2.10;;;;;;;14.60;39.04;100316.50;3520872;40;20462;-76
2021/05/14 05:59:04;;;;;;;4.55;2.45;;;;;;;14.69;38.75;100321.84;3524994;40;20086;-75
2021/05/14 06:01:33;;;;;;;3.72;2.20;;;;;;;14.74;38.61;100325.97;3523401;40;20130;-75
2021/05/14 06:04:01;;;;;;;4.28;2.03;;;;;;;14.83;38.71;100331.34;3524210;40;20055;-74
2021/05/14 06:06:29;;;;;;;3.58;2.03;;;;;;;14.92;39.00;100323.94;3530727;40;20058;-75
2021/05/14 06:08:57;;;;;;;3.35;2.08;;;;;;;15.02;38.58;100328.22;3522932;40;20055;-75
2021/05/14 06:11:25;;;;;;;4.07;2.15;;;;;;;15.17;38.85;100333.88;3520576;40;20062;-75
2021/05/14 06:13:53;;;;;;;4.07;2.15;;;;;;;15.30;38.54;100331.47;3528333;40;20310;-75
2021/05/14 06:16:21;;;;;;;4.50;2.10;;;;;;;15.48;38.30;100336.72;3519885;40;20067;-75
2021/05/14 06:18:53;;;;;;;4.15;2.20;;;;;;;15.66;38.25;100344.81;3519822;40;20062;-74
2021/05/14 06:21:22;;;;;;;3.35;2.25;;;;;;;15.86;38.40;100348.00;3520160;40;20149;-76
2021/05/14 06:23:50;;;;;;;4.95;2.20;;;;;;;16.09;38.01;100344.25;3527525;40;20051;-75
2021/05/14 06:26:18;;;;;;;3.53;2.03;;;;;;;16.34;38.01;100347.75;3520608;40;20466;-75
2021/05/14 06:28:46;;;;;;;3.45;1.90;;;;;;;16.61;37.83;100345.53;3520505;40;20063;-76
2021/05/14 06:31:13;;;;;;;3.80;2.25;;;;;;;16.91;37.33;100339.91;3521957;40;20397;-76
2021/05/14 06:33:42;;;;;;;3.60;2.03;;;;;;;17.26;37.44;100334.75;3521418;40;20047;-76
2021/05/14 06:36:11;;;;;;;3.15;2.00;;;;;;;17.64;37.25;100341.94;3520836;40;20435;-75
2021/05/14 06:38:40;;;;;;;4.38;1.92;;;;;;;18.07;36.44;100342.13;3520875;40;20055;-75
2021/05/14 06:41:08;;;;;;;3.67;1.90;;;;;;;18.50;36.88;100340.28;3520682;40;20181;-75
2021/05/14 06:43:36;;;;;;;4.05;1.90;;;;;;;18.97;35.89;100336.94;3519967;40;20051;-76
2021/05/14 06:46:04;;;;;;;3.45;1.92;;;;;;;19.42;35.36;100341.13;3518712;40;20054;-76
2021/05/14 06:48:35;;;;;;;3.13;1.67;;;;;;;19.81;34.93;100343.31;3520361;40;20114;-75
2021/05/14 06:51:04;;;;;;;4.00;2.38;;;;;;;20.12;33.77;100359.47;3519566;40;20039;-75
2021/05/14 06:53:32;;;;;;;2.85;1.77;;;;;;;20.31;32.70;100357.88;3519428;40;20059;-75
2021/05/14 06:56:00;;;;;;;3.10;1.70;;;;;;;20.45;32.11;100356.84;3520098;40;20067;-75
2021/05/14 06:58:28;;;;;;;3.53;1.95;;;;;;;20.52;32.38;100351.31;3520726;40;21287;-77
2021/05/14 07:00:55;;;;;;;3.85;1.85;;;;;;;20.57;32.03;100349.63;3520444;40;20035;-76
2021/05/14 07:03:23;;;;;;;3.30;1.70;;;;;;;20.64;31.39;100355.22;3521818;40;20054;-76
2021/05/14 07:05:51;;;;;;;2.65;1.70;;;;;;;20.66;31.39;100353.94;3522264;40;20091;-77
2021/05/14 07:08:21;;;;;;;2.47;1.60;;;;;;;20.68;30.83;100349.00;3521619;40;20170;-76
2021/05/14 07:10:48;;;;;;;2.72;1.60;;;;;;;20.69;30.25;100356.28;3521354;40;20642;-76
2021/05/14 07:13:18;;;;;;;3.85;1.83;;;;;;;20.71;30.24;100353.28;3521238;40;21244;-76
2021/05/14 07:15:47;;;;;;;3.17;1.88;;;;;;;20.67;29.82;100352.84;3519987;40;20047;-75
2021/05/14 07:18:16;;;;;;;3.03;1.70;;;;;;;20.64;30.02;100353.28;3520372;40;20135;-76
2021/05/14 07:20:43;;;;;;;3.20;1.73;;;;;;;20.62;29.98;100349.00;3519447;40;20050;-76
2021/05/14 07:23:11;;;;;;;3.30;1.95;;;;;;;20.57;29.38;100359.91;3518637;40;20059;-76
2021/05/14 07:25:40;;;;;;;3.58;1.48;;;;;;;20.50;29.60;100359.84;3520808;40;20352;-76
2021/05/14 07:28:08;;;;;;;2.13;1.25;;;;;;;20.45;29.72;100364.34;3519630;40;20417;-71
2021/05/14 07:30:37;;;;;;;4.05;1.60;;;;;;;20.39;29.10;100359.63;3517156;40;20063;-72
2021/05/14 07:33:05;;;;;;;3.13;1.38;;;;;;;20.31;29.32;100366.22;3519591;40;20448;-71
2021/05/14 07:35:33;;;;;;;2.92;1.55;;;;;;;20.25;29.60;100367.06;3518541;40;20133;-71
2021/05/14 07:38:08;;;;;;;2.92;1.70;;;;;;;20.22;29.77;100370.25;3519268;40;20058;-71
2021/05/14 07:40:36;;;;;;;3.17;1.50;;;;;;;20.19;29.95;100367.84;3517545;40;20059;-71
2021/05/14 07:43:04;;;;;;;4.32;1.67;;;;;;;20.17;29.34;100370.81;3519361;40;20086;-71
2021/05/14 07:45:35;;;;;;;4.28;2.15;;;;;;;20.19;29.16;100370.63;3519105;40;20127;-71
2021/05/14 07:48:06;;;;;;;3.85;1.73;;;;;;;20.18;29.22;100374.44;3518446;40;20344;-71
2021/05/14 07:50:34;;;;;;;2.80;1.20;;;;;;;20.15;29.38;100377.66;3518607;40;20054;-71
2021/05/14 07:53:04;;;;;;;2.63;1.23;;;;;;;20.15;30.02;100378.53;3519007;40;20043;-70
2021/05/14 07:55:31;;;;;;;3.60;1.38;;;;;;;20.16;30.01;100373.81;3519095;40;20055;-70
2021/05/14 07:57:59;;;;;;;4.93;1.70;;;;;;;20.18;29.78;100372.53;3516962;40;20705;-71
2021/05/14 08:00:27;;;;;;;3.50;1.33;;;;;;;20.19;29.21;100365.91;3517503;40;20070;-70
2021/05/14 08:02:55;;;;;;;2.47;1.52;;;;;;;20.24;29.87;100379.22;3518906;40;21616;-71
2021/05/14 08:05:24;;;;;;;3.45;1.70;;;;;;;20.26;29.43;100374.31;3519276;40;20071;-71
2021/05/14 08:08:02;;;;;;;3.67;1.50;;;;;;;20.31;28.59;100375.41;3519178;40;20142;-71
2021/05/14 08:10:30;;;;;;;3.95;1.80;;;;;;;20.27;29.14;100371.31;3518402;40;20055;-72
2021/05/14 08:13:19;;;;;;;2.92;1.50;;;;;;;20.28;29.07;100370.25;3519215;40;20155;-71
2021/05/14 08:15:47;;;;;;;2.92;1.50;;;;;;;20.30;29.03;100370.91;3518183;40;20054;-71
2021/05/14 08:18:17;;;;;;;4.80;1.45;;;;;;;20.32;28.84;100367.94;3518949;40;20059;-71
2021/05/14 08:20:46;;;;;;;3.05;1.52;;;;;;;20.35;29.14;100369.41;3523579;40;20055;-72
2021/05/14 08:23:18;;;;;;;3.53;1.60;;;;;;;20.35;28.69;100363.88;3518091;40;20050;-70
2021/05/14 08:25:46;;;;;;;3.03;1.45;;;;;;;20.35;28.46;100367.50;3516860;40;20456;-71
2021/05/14 08:28:14;;;;;;;3.20;1.33;;;;;;;20.37;28.81;100361.75;3517208;40;20098;-71
2021/05/14 08:30:43;;;;;;;2.95;1.33;;;;;;;20.39;28.44;100365.19;3517679;40;20403;-72
2021/05/14 08:33:11;;;;;;;2.22;1.30;;;;;;;20.38;28.36;100357.91;3517620;40;20154;-71
2021/05/14 08:35:40;;;;;;;4.75;1.67;;;;;;;20.41;28.68;100365.84;3518760;40;20428;-72
2021/05/14 08:38:10;;;;;;;2.92;1.40;;;;;;;20.44;28.03;100366.25;3518914;40;20134;-73
2021/05/14 08:40:40;;;;;;;3.88;1.50;;;;;;;20.44;28.45;100362.63;3523821;40;20059;-72
2021/05/14 08:43:11;;;;;;;4.65;1.65;;;;;;;20.44;28.37;100366.25;3518071;40;20047;-71
2021/05/14 08:45:41;;;;;;;3.25;1.40;;;;;;;20.46;28.20;100371.59;3517632;40;20059;-72
2021/05/14 08:48:12;;;;;;;3.05;1.30;;;;;;;20.48;28.01;100375.91;3522428;40;20055;-71
2021/05/14 08:50:41;;;;;;;2.10;1.23;;;;;;;20.46;28.08;100375.25;3518855;40;20087;-71
2021/05/14 08:53:30;;;;;;;2.80;1.20;;;;;;;20.50;27.64;100365.41;3517821;40;20055;-71
2021/05/14 08:56:02;;;;;;;2.30;1.40;;;;;;;20.51;27.94;100369.91;3518865;40;20059;-71
2021/05/14 08:58:30;;;;;;;3.22;1.40;;;;;;;20.57;27.63;100371.00;3516672;40;20062;-70
2021/05/14 09:00:58;;;;;;;2.78;1.27;;;;;;;20.58;27.46;100365.22;3522091;40;20126;-70
2021/05/14 09:03:27;;;;;;;3.03;1.40;;;;;;;20.60;27.21;100365.88;3518045;40;20149;-71
2021/05/14 09:06:27;;;;;;;2.25;1.05;;;;;;;20.65;26.84;100365.25;3518788;40;20115;-71
2021/05/14 09:08:59;;;;;;;2.35;1.33;;;;;;;20.62;26.98;100372.09;3525681;40;20043;-71
2021/05/14 09:11:39;;;;;;;3.15;1.20;;;;;;;20.65;26.58;100373.59;3518525;40;20678;-71
2021/05/14 09:14:08;;;;;;;2.95;1.30;;;;;;;20.60;26.75;100368.66;3524333;40;20420;-71
2021/05/14 09:16:43;;;;;;;3.03;1.20;;;;;;;20.63;25.87;100368.25;3519052;40;20051;-73
2021/05/14 09:19:11;;;;;;;2.90;1.25;;;;;;;20.60;26.20;100367.78;3519597;40;20059;-72
2021/05/14 09:21:43;;;;;;;6.05;1.23;;;;;;;20.57;26.24;100366.31;3515712;40;20063;-71
2021/05/14 09:24:12;;;;;;;1.67;0.85;;;;;;;20.62;26.55;100366.53;3518322;40;20055;-73
2021/05/14 09:26:40;;;;;;;2.70;1.10;;;;;;;20.63;26.54;100367.38;3519960;40;20059;-71
2021/05/14 09:29:37;;;;;;;2.38;1.10;;;;;;;20.69;26.31;100367.41;3520160;40;20409;-70
2021/05/14 09:32:19;;;;;;;2.00;1.20;;;;;;;20.73;25.79;100366.97;3517261;40;20133;-70
2021/05/14 09:34:52;;;;;;;1.80;1.00;;;;;;;20.74;25.99;100366.78;3520420;40;20332;-71
2021/05/14 09:37:23;;;;;;;2.20;1.10;;;;;;;20.74;25.84;100361.22;3520342;40;20067;-69
2021/05/14 09:40:12;;;;;;;2.20;1.02;;;;;;;20.75;25.66;100368.47;3519561;40;20047;-69
2021/05/14 09:43:01;;;;;;;1.90;1.02;;;;;;;20.73;26.67;100362.28;3522537;40;20062;-71
2021/05/14 09:45:33;;;;;;;1.73;1.02;;;;;;;20.76;26.17;100363.75;3520233;40;20126;-71
2021/05/14 09:48:02;;;;;;;1.85;1.00;;;;;;;20.77;25.87;100360.78;3516379;40;20129;-71
2021/05/14 09:50:36;;;;;;;3.50;1.15;;;;;;;20.79;25.51;100358.66;3520411;40;20051;-70
2021/05/14 09:53:15;;;;;;;2.03;1.20;;;;;;;20.76;25.53;100356.28;3520262;40;20067;-70
2021/05/14 09:55:58;;;;;;;2.53;1.10;;;;;;;20.77;25.81;100357.13;3520123;40;20067;-70
2021/05/14 09:58:30;;;;;;;1.40;0.88;;;;;;;20.75;25.96;100367.63;3519956;40;20557;-70
2021/05/14 10:01:01;;;;;;;2.72;1.05;;;;;;;20.72;25.78;100357.78;3519054;40;20402;-69
2021/05/14 10:03:40;;;;;;;2.72;1.02;;;;;;;20.73;25.66;100355.88;3519437;40;20347;-69
2021/05/14 10:06:19;;;;;;;2.50;1.00;;;;;;;20.76;25.85;100363.75;3519890;40;20082;-69
2021/05/14 10:08:50;;;;;;;1.75;0.90;;;;;;;20.79;25.74;100353.09;3518725;40;20718;-69
2021/05/14 10:11:23;;;;;;;1.55;0.88;;;;;;;20.83;25.40;100354.34;3519235;40;20071;-69
2021/05/14 10:13:53;;;;;;;1.90;1.00;;;;;;;20.88;25.45;100345.41;3522297;40;20062;-69
2021/05/14 10:16:21;;;;;;;2.58;1.20;;;;;;;20.91;25.55;100351.41;3521766;40;20043;-69
2021/05/14 10:18:59;;;;;;;1.42;0.93;;;;;;;20.96;25.46;100353.56;3520370;40;20402;-69
2021/05/14 10:21:27;;;;;;;2.08;1.05;;;;;;;20.98;25.08;100355.06;3519997;40;20150;-69
2021/05/14 10:23:56;;;;;;;2.53;1.00;;;;;;;21.03;24.74;100348.88;3521619;40;20074;-68
2021/05/14 10:26:36;;;;;;;1.95;1.00;;;;;;;21.09;24.63;100348.00;3523017;40;20432;-69
2021/05/14 10:29:12;;;;;;;1.98;0.93;;;;;;;21.12;24.45;100347.59;3523902;40;20416;-69
2021/05/14 10:31:44;;;;;;;1.85;0.90;;;;;;;21.15;24.45;100349.94;3528521;40;20113;-69
2021/05/14 10:34:16;;;;;;;1.38;0.80;;;;;;;21.18;24.08;100346.72;3521927;40;20057;-68
2021/05/14 10:36:47;;;;;;;2.42;0.82;;;;;;;21.20;24.77;100333.47;3518031;40;20094;-69
2021/05/14 10:39:17;;;;;;;2.35;0.90;;;;;;;21.26;24.55;100334.50;3520260;40;20332;-69
2021/05/14 10:41:52;;;;;;;1.67;0.90;;;;;;;21.31;24.05;100334.75;3519761;40;20059;-68
2021/05/14 10:44:47;;;;;;;1.08;0.88;;;;;;;21.30;23.59;100331.09;3521886;40;20412;-70
2021/05/14 10:47:46;;;;;;;2.30;0.80;;;;;;;21.26;23.77;100320.59;3521360;40;20151;-69
2021/05/14 10:50:36;;;;;;;1.90;0.93;;;;;;;21.35;23.76;100314.59;3519212;40;20063;-69
2021/05/14 10:53:29;;;;;;;1.30;0.70;;;;;;;21.37;23.64;100322.75;3520089;40;20063;-69
2021/05/14 10:56:34;;;;;;;1.95;0.80;;;;;;;21.39;24.10;100317.84;3519428;40;20063;-69
2021/05/14 10:59:10;;;;;;;1.13;0.73;;;;;;;21.42;23.71;100304.31;3521061;40;20043;-69
2021/05/14 11:01:42;;;;;;;1.98;0.80;;;;;;;21.47;23.99;100317.59;3518845;40;20149;-70
2021/05/14 11:04:43;;;;;;;2.25;1.13;;;;;;;21.48;23.64;100313.75;3519166;40;20146;-69
2021/05/14 11:07:36;;;;;;;1.70;0.88;;;;;;;21.51;23.90;100320.78;3519838;40;20062;-69
2021/05/14 11:10:27;;;;;;;1.80;0.93;;;;;;;21.56;23.86;100316.34;3520517;40;20137;-69
2021/05/14 11:12:56;;;;;;;2.80;1.27;;;;;;;21.59;24.20;100315.03;3526572;40;20066;-71
2021/05/14 11:15:35;;;;;;;2.30;1.23;;;;;;;21.65;23.74;100314.19;3519681;40;20058;-70
2021/05/14 11:18:26;;;;;;;1.55;0.90;;;;;;;21.63;23.67;100328.31;3519425;40;20074;-72
2021/05/14 11:20:56;;;;;;;1.73;0.90;;;;;;;21.60;23.54;100311.16;3520142;40;21555;-70
2021/05/14 11:23:38;;;;;;;2.83;0.98;;;;;;;21.64;23.08;100316.09;3521523;40;20074;-71
2021/05/14 11:26:07;;;;;;;1.95;0.77;;;;;;;21.62;23.91;100317.38;3520642;40;20094;-71
2021/05/14 11:28:46;;;;;;;1.17;0.90;;;;;;;21.66;23.32;100319.50;3522172;40;20055;-71
2021/05/14 11:31:20;;;;;;;;;;;;;;;21.33;24.79;100315.88;3519296;40;21083;-70
2021/05/14 11:33:50;;;;;;;1.17;0.88;;;;;;;21.63;23.79;100321.88;3519294;40;19945;-69
2021/05/14 11:36:25;;;;;;;2.88;1.40;;;;;;;21.65;24.02;100315.03;3520716;40;20055;-71
2021/05/14 11:38:56;;;;;;;2.50;1.30;;;;;;;21.67;23.29;100320.34;3520318;40;20057;-71
2021/05/14 11:41:26;;;;;;;2.42;1.00;;;;;;;21.64;23.80;100312.47;3519143;40;20197;-72
2021/05/14 11:43:56;;;;;;;1.98;1.17;;;;;;;21.65;23.46;100319.75;3520522;40;20114;-72
2021/05/14 11:46:27;;;;;;;2.88;1.20;;;;;;;21.63;23.72;100316.31;3522331;40;20306;-72
2021/05/14 11:48:56;;;;;;;2.70;1.10;;;;;;;21.59;23.30;100327.00;3526785;40;20074;-72
2021/05/14 11:51:24;;;;;;;1.83;1.10;;;;;;;21.56;23.59;100323.81;3521798;40;20459;-72
2021/05/14 11:53:52;;;;;;;2.05;1.10;;;;;;;21.53;23.07;100322.28;3521765;40;20095;-72
2021/05/14 11:56:21;;;;;;;3.13;1.20;;;;;;;21.49;23.36;100318.22;3520593;40;20083;-73
2021/05/14 11:58:49;;;;;;;2.13;1.20;;;;;;;21.44;23.59;100332.78;3521809;40;20083;-72
2021/05/14 12:01:18;;;;;;;3.90;1.48;;;;;;;21.41;23.15;100337.91;3519053;40;20045;-72